Time;durP1;ratioP1;P1;durP2;ratioP2;P2;SDS_P1;SDS_P2;PMS_P1;PMS_P2;Temp;Humidity;BMP_temperature;BMP_pressure;BME280_temperature;BME280_humidity;BME280_pressure;Samples;Min_cycle;Max_cycle;Signal;HPM_P1;HPM_P2
2023/09/14 00:00:17;;;;;;;35.50;33.70;;;;;;;20.31;100.00;100998.41;4987230;28;20051;-73
2023/09/14 00:02:44;;;;;;;32.88;30.95;;;;;;;20.27;100.00;101002.72;4984530;28;20663;-81
2023/09/14 00:05:11;;;;;;;31.27;29.52;;;;;;;20.09;100.00;101001.28;4991562;28;20054;-81
2023/09/14 00:07:53;;;;;;;30.50;28.70;;;;;;;19.94;100.00;100992.28;4991155;28;20057;-81
2023/09/14 00:10:32;;;;;;;35.03;33.15;;;;;;;19.97;100.00;100999.84;4988987;28;20555;-81
2023/09/14 00:12:58;;;;;;;30.95;29.25;;;;;;;19.71;100.00;100999.72;4985327;28;20120;-81
2023/09/14 00:15:38;;;;;;;36.70;34.90;;;;;;;19.37;100.00;100997.28;4986643;28;20050;-81
2023/09/14 00:18:06;;;;;;;32.53;30.83;;;;;;;19.49;100.00;100996.31;4977845;28;20042;-81
2023/09/14 00:20:33;;;;;;;33.08;31.27;;;;;;;19.23;100.00;101004.97;4982839;28;20042;-81
2023/09/14 00:23:03;;;;;;;31.40;29.75;;;;;;;19.08;100.00;101002.16;4991609;28;20046;-73
2023/09/14 00:25:39;;;;;;;33.28;31.48;;;;;;;19.62;100.00;101001.25;4986630;28;20046;-73
2023/09/14 00:28:07;;;;;;;30.58;28.88;;;;;;;19.68;100.00;101001.03;4989937;28;20046;-73
2023/09/14 00:30:39;;;;;;;32.80;31.00;;;;;;;19.44;100.00;100994.38;4984382;28;20122;-73
2023/09/14 00:33:06;;;;;;;27.10;25.50;;;;;;;19.37;100.00;100994.59;4991450;28;20049;-73
2023/09/14 00:35:34;;;;;;;30.58;28.88;;;;;;;19.13;100.00;101001.41;4985433;28;20497;-73
2023/09/14 00:38:01;;;;;;;31.70;30.00;;;;;;;19.32;100.00;101001.81;4991112;28;20046;-74
2023/09/14 00:40:28;;;;;;;32.85;30.95;;;;;;;19.05;100.00;101007.25;4989763;28;20054;-74
2023/09/14 00:42:56;;;;;;;39.97;37.78;;;;;;;19.16;100.00;101001.69;4987470;28;20066;-73
2023/09/14 00:45:39;;;;;;;39.22;37.13;;;;;;;19.10;100.00;101004.59;4988037;28;20047;-73
2023/09/14 00:48:07;;;;;;;36.42;34.33;;;;;;;18.84;100.00;101011.63;4987288;28;20055;-73
2023/09/14 00:50:38;;;;;;;38.85;36.05;;;;;;;18.78;100.00;101018.81;4992863;28;20508;-74
2023/09/14 00:53:08;;;;;;;30.98;29.17;;;;;;;18.64;100.00;101004.09;4988084;28;20062;-73
2023/09/14 00:55:36;;;;;;;27.30;25.60;;;;;;;18.82;100.00;101008.34;4992345;28;20050;-81
2023/09/14 00:58:07;;;;;;;30.38;28.58;;;;;;;18.62;100.00;101006.25;4989273;28;20502;-80
2023/09/14 01:00:40;;;;;;;34.65;32.85;;;;;;;18.80;100.00;101002.44;4983804;28;20555;-81
2023/09/14 01:03:07;;;;;;;28.70;27.10;;;;;;;18.63;100.00;101011.38;4991162;28;20054;-76
2023/09/14 01:05:37;;;;;;;30.30;28.60;;;;;;;18.45;100.00;101006.31;4989854;28;20500;-81
2023/09/14 01:08:04;;;;;;;30.85;29.25;;;;;;;18.60;100.00;101011.88;4991537;28;20058;-81
2023/09/14 01:10:31;;;;;;;28.27;26.77;;;;;;;18.70;100.00;101003.94;4988123;28;20050;-80
2023/09/14 01:12:58;;;;;;;30.98;29.40;;;;;;;18.73;100.00;101008.84;4991065;28;20055;-81
2023/09/14 01:15:30;;;;;;;30.83;29.25;;;;;;;19.21;100.00;100996.38;4990857;28;20436;-81
2023/09/14 01:18:13;;;;;;;29.10;27.40;;;;;;;18.94;100.00;100995.56;4988841;28;20051;-81
2023/09/14 01:20:54;;;;;;;26.77;25.17;;;;;;;18.97;100.00;100998.56;4990499;28;20499;-81
2023/09/14 01:23:47;;;;;;;29.08;27.38;;;;;;;18.34;100.00;101000.03;4989523;28;20042;-81
2023/09/14 01:26:16;;;;;;;26.83;25.13;;;;;;;18.70;100.00;100989.66;4980219;28;20077;-73
2023/09/14 01:28:43;;;;;;;30.63;28.92;;;;;;;18.85;100.00;100989.00;4990843;28;20057;-73
2023/09/14 01:31:10;;;;;;;28.90;27.10;;;;;;;18.99;100.00;100995.63;4985813;28;20440;-74
2023/09/14 01:33:37;;;;;;;33.40;31.50;;;;;;;19.07;100.00;100991.66;4991633;28;20413;-73
2023/09/14 01:36:18;;;;;;;33.55;31.55;;;;;;;19.10;100.00;100985.75;4985244;28;20081;-81
2023/09/14 01:38:46;;;;;;;25.38;23.67;;;;;;;19.19;100.00;100985.03;4989072;28;20057;-81
2023/09/14 01:41:14;;;;;;;26.55;24.95;;;;;;;18.97;100.00;100990.50;4982833;28;20051;-81
2023/09/14 01:43:46;;;;;;;25.45;23.85;;;;;;;19.09;100.00;100990.34;4983130;28;20046;-81
2023/09/14 01:46:14;;;;;;;25.10;23.50;;;;;;;18.49;100.00;100996.69;4987732;28;20061;-81
2023/09/14 01:48:41;;;;;;;31.17;29.38;;;;;;;18.05;100.00;100999.38;4991727;28;20047;-81
2023/09/14 01:51:07;;;;;;;32.35;30.25;;;;;;;18.70;100.00;100998.53;4985821;28;20145;-81
2023/09/14 01:53:35;;;;;;;26.85;25.15;;;;;;;18.71;100.00;100993.97;4988769;28;20507;-73
2023/09/14 01:56:02;;;;;;;30.75;28.95;;;;;;;18.22;100.00;101000.13;4991344;28;20508;-81
2023/09/14 01:58:29;;;;;;;37.30;35.22;;;;;;;17.79;100.00;100992.81;4985476;28;20081;-73
2023/09/14 02:00:57;;;;;;;36.03;33.75;;;;;;;18.07;100.00;100990.00;4991739;28;20419;-81
2023/09/14 02:03:26;;;;;;;34.40;32.60;;;;;;;18.51;100.00;100984.59;4984784;28;20500;-81
2023/09/14 02:05:58;;;;;;;34.60;32.60;;;;;;;18.29;100.00;100995.38;4991638;28;20516;-81
2023/09/14 02:08:25;;;;;;;37.08;35.17;;;;;;;18.48;100.00;100987.78;4990088;28;20095;-74
2023/09/14 02:10:59;;;;;;;35.42;33.72;;;;;;;18.21;100.00;100992.31;4990103;28;20054;-73
2023/09/14 02:13:26;;;;;;;36.15;34.35;;;;;;;18.16;100.00;100984.19;4981237;28;20050;-74
2023/09/14 02:15:53;;;;;;;33.33;31.63;;;;;;;17.66;100.00;100985.09;4988888;28;20054;-74
2023/09/14 02:18:39;;;;;;;34.75;32.95;;;;;;;17.58;100.00;100989.03;4982461;28;20050;-81
2023/09/14 02:21:06;;;;;;;37.17;35.38;;;;;;;17.24;100.00;100996.25;4989041;28;20047;-73
2023/09/14 02:23:33;;;;;;;30.67;29.02;;;;;;;17.14;100.00;100999.59;4982974;28;20051;-73
2023/09/14 02:26:00;;;;;;;33.53;31.83;;;;;;;17.18;100.00;100996.16;4975273;28;20058;-73
2023/09/14 02:28:27;;;;;;;31.65;29.95;;;;;;;17.40;100.00;100996.25;4981684;28;20145;-73
2023/09/14 02:30:54;;;;;;;30.55;29.05;;;;;;;17.38;100.00;100995.69;4980581;28;20057;-73
2023/09/14 02:33:21;;;;;;;23.00;21.70;;;;;;;16.96;100.00;100997.13;4980584;28;20047;-74
2023/09/14 02:35:50;;;;;;;30.38;28.67;;;;;;;17.08;100.00;101000.56;4987968;28;20042;-73
2023/09/14 02:38:18;;;;;;;27.90;26.45;;;;;;;17.38;100.00;100997.56;4978349;28;20046;-81
2023/09/14 02:40:45;;;;;;;36.42;34.72;;;;;;;17.54;100.00;101004.78;4983975;28;20100;-73
2023/09/14 02:43:12;;;;;;;27.00;25.42;;;;;;;17.47;100.00;101000.66;4985153;28;20441;-81
2023/09/14 02:45:39;;;;;;;28.13;26.52;;;;;;;17.35;100.00;101001.53;4988215;28;20496;-74
2023/09/14 02:48:06;;;;;;;30.25;28.38;;;;;;;17.36;100.00;101003.16;4984207;28;20553;-73
2023/09/14 02:50:33;;;;;;;28.63;27.02;;;;;;;17.47;100.00;101004.16;4989640;28;20424;-73
2023/09/14 02:53:01;;;;;;;31.23;29.42;;;;;;;17.30;100.00;101006.81;4987730;28;20109;-73
2023/09/14 02:55:42;;;;;;;28.05;26.52;;;;;;;17.32;100.00;101009.28;4981183;28;20043;-73
2023/09/14 02:58:10;;;;;;;30.10;28.58;;;;;;;17.04;100.00;101002.09;4988605;28;20051;-73
2023/09/14 03:00:43;;;;;;;35.25;33.35;;;;;;;17.13;100.00;101004.13;4983681;28;20503;-73
2023/09/14 03:03:17;;;;;;;24.33;22.95;;;;;;;16.90;100.00;101007.75;4988030;28;20056;-73
2023/09/14 03:05:48;;;;;;;23.90;22.27;;;;;;;16.74;100.00;101005.81;4982469;28;20068;-73
2023/09/14 03:08:16;;;;;;;30.35;28.85;;;;;;;16.89;100.00;101002.63;4989308;28;20105;-81
2023/09/14 03:10:43;;;;;;;25.63;24.25;;;;;;;16.72;100.00;101003.38;4990344;28;20059;-82
2023/09/14 03:13:11;;;;;;;25.88;24.48;;;;;;;16.39;100.00;101008.59;4990314;28;20050;-82
2023/09/14 03:15:38;;;;;;;27.75;26.25;;;;;;;16.69;100.00;101001.16;4984707;28;20046;-82
2023/09/14 03:18:11;;;;;;;27.98;26.48;;;;;;;16.69;100.00;101001.16;4983980;28;20532;-81
2023/09/14 03:20:50;;;;;;;24.90;23.50;;;;;;;16.69;100.00;100998.47;4988303;28;20074;-81
2023/09/14 03:23:18;;;;;;;23.33;22.02;;;;;;;16.68;100.00;101007.59;4990268;28;20058;-82
2023/09/14 03:25:45;;;;;;;24.67;23.25;;;;;;;16.64;100.00;101009.13;4979425;28;20050;-73
2023/09/14 03:28:15;;;;;;;37.55;35.22;;;;;;;16.57;100.00;101013.00;4986105;28;20424;-81
2023/09/14 03:30:42;;;;;;;36.70;34.70;;;;;;;16.26;100.00;101009.69;4988825;28;20050;-73
2023/09/14 03:33:30;;;;;;;43.53;41.03;;;;;;;16.43;100.00;101018.63;4990189;28;20081;-81
2023/09/14 03:35:57;;;;;;;42.58;40.28;;;;;;;16.26;100.00;101007.81;4981017;28;20059;-73
2023/09/14 03:38:25;;;;;;;22.45;20.95;;;;;;;15.51;100.00;101024.59;4990039;28;20042;-73
2023/09/14 03:40:52;;;;;;;20.42;19.13;;;;;;;15.91;100.00;101020.44;4988808;28;20436;-73
2023/09/14 03:43:19;;;;;;;21.58;20.17;;;;;;;16.05;100.00;101019.16;4986928;28;20054;-73
2023/09/14 03:45:46;;;;;;;21.85;20.55;;;;;;;16.00;100.00;101027.88;4989121;28;20054;-74
2023/09/14 03:48:13;;;;;;;21.70;20.30;;;;;;;15.77;100.00;101027.91;4992318;28;20052;-82
2023/09/14 03:50:40;;;;;;;23.58;22.17;;;;;;;15.90;100.00;101033.03;4987133;28;20101;-81
2023/09/14 03:53:08;;;;;;;21.40;19.90;;;;;;;22.02;100.00;101020.69;4985047;28;20058;-73
2023/09/14 03:55:36;;;;;;;20.70;19.30;;;;;;;17.81;100.00;101009.50;4986320;28;20046;-74
2023/09/14 03:58:08;;;;;;;20.90;19.50;;;;;;;20.52;100.00;101026.31;4991451;28;20471;-85
2023/09/14 04:00:35;;;;;;;26.10;22.20;;;;;;;24.58;100.00;101011.38;4989892;28;20472;-74
2023/09/14 04:03:03;;;;;;;22.15;20.55;;;;;;;21.78;100.00;101017.75;4986721;28;20054;-82
2023/09/14 04:05:30;;;;;;;22.08;20.48;;;;;;;17.80;100.00;101032.09;4981911;28;20055;-74
2023/09/14 04:07:57;;;;;;;20.00;18.70;;;;;;;16.19;100.00;101033.94;4986701;28;20050;-82
2023/09/14 04:10:23;;;;;;;21.00;19.70;;;;;;;15.76;100.00;101035.13;4992830;28;20054;-82
2023/09/14 04:12:52;;;;;;;19.98;18.77;;;;;;;15.72;100.00;101043.84;4982677;28;20134;-82
2023/09/14 04:15:19;;;;;;;20.30;19.00;;;;;;;15.80;100.00;101043.53;4976882;28;20109;-82
2023/09/14 04:17:49;;;;;;;20.55;19.25;;;;;;;15.95;100.00;101048.41;4980654;28;20048;-73
2023/09/14 04:20:16;;;;;;;20.55;19.35;;;;;;;15.74;100.00;101041.78;4984137;28;20053;-74
2023/09/14 04:22:43;;;;;;;21.00;19.70;;;;;;;16.02;100.00;101052.59;4991582;28;20165;-74
2023/09/14 04:25:10;;;;;;;25.63;23.70;;;;;;;16.17;100.00;101043.28;4979118;28;20050;-74
2023/09/14 04:27:37;;;;;;;27.08;25.58;;;;;;;16.33;100.00;101053.25;4979752;28;20050;-74
2023/09/14 04:30:08;;;;;;;21.40;20.10;;;;;;;16.45;100.00;101051.38;4983492;28;20043;-74
2023/09/14 04:32:35;;;;;;;21.05;19.80;;;;;;;16.20;100.00;101046.28;4982093;28;20053;-73
2023/09/14 04:35:04;;;;;;;20.42;19.00;;;;;;;16.48;100.00;101045.53;4992178;28;20508;-74
2023/09/14 04:37:37;;;;;;;20.20;18.83;;;;;;;16.49;100.00;101046.38;4976411;28;20488;-74
2023/09/14 04:40:08;;;;;;;21.52;20.02;;;;;;;16.48;100.00;101050.88;4976962;28;20055;-74
2023/09/14 04:42:40;;;;;;;21.07;19.67;;;;;;;16.79;100.00;101048.03;4990988;28;20456;-74
2023/09/14 04:45:09;;;;;;;23.15;21.55;;;;;;;16.97;100.00;101041.66;4983253;28;20550;-74
2023/09/14 04:47:36;;;;;;;21.45;19.95;;;;;;;17.02;100.00;101049.81;4977027;28;20058;-82
2023/09/14 04:50:03;;;;;;;22.10;20.55;;;;;;;17.13;100.00;101044.41;4981431;28;20058;-82
2023/09/14 04:52:30;;;;;;;20.10;18.65;;;;;;;17.18;100.00;101039.09;4976122;28;20435;-74
2023/09/14 04:55:20;;;;;;;21.08;19.63;;;;;;;17.34;100.00;101044.75;4979225;28;20061;-74
2023/09/14 04:57:55;;;;;;;19.52;18.23;;;;;;;17.45;100.00;101049.22;4989818;28;20475;-74
2023/09/14 05:00:23;;;;;;;19.58;18.38;;;;;;;17.59;100.00;101047.03;4980844;28;20043;-74
2023/09/14 05:03:10;;;;;;;20.30;18.95;;;;;;;17.60;100.00;101051.34;4985491;28;20544;-82
2023/09/14 05:05:51;;;;;;;19.17;17.98;;;;;;;18.07;100.00;101049.13;4974123;28;20126;-82
2023/09/14 05:08:18;;;;;;;20.80;19.33;;;;;;;18.23;100.00;101041.28;4987044;28;20046;-74
2023/09/14 05:10:44;;;;;;;20.40;19.20;;;;;;;18.41;100.00;101040.16;4985253;28;20060;-74
2023/09/14 05:13:11;;;;;;;22.08;20.25;;;;;;;18.67;100.00;101030.50;4984337;28;20050;-82
2023/09/14 05:15:39;;;;;;;26.20;24.20;;;;;;;18.79;100.00;101039.31;4989080;28;20055;-74
2023/09/14 05:18:18;;;;;;;20.85;19.55;;;;;;;18.86;100.00;101042.59;4993410;28;20513;-81
2023/09/14 05:20:47;;;;;;;23.92;22.52;;;;;;;19.02;100.00;101043.56;4979581;28;20056;-74
2023/09/14 05:23:16;;;;;;;27.38;22.70;;;;;;;19.21;100.00;101046.69;4978472;28;20047;-82
2023/09/14 05:25:44;;;;;;;21.27;19.88;;;;;;;19.38;100.00;101043.88;4970258;28;20038;-74
2023/09/14 05:28:19;;;;;;;19.52;18.33;;;;;;;19.38;100.00;101036.63;4978983;28;20085;-79
2023/09/14 05:30:47;;;;;;;20.40;19.20;;;;;;;19.68;100.00;101046.84;4985403;28;20053;-82
2023/09/14 05:33:14;;;;;;;22.45;20.95;;;;;;;19.85;100.00;101044.00;4991862;28;20050;-82
2023/09/14 05:35:41;;;;;;;21.15;19.85;;;;;;;19.84;100.00;101044.25;4978709;28;20054;-74
2023/09/14 05:38:08;;;;;;;22.90;21.00;;;;;;;19.93;100.00;101039.19;4984972;28;20054;-74
2023/09/14 05:40:35;;;;;;;20.65;19.42;;;;;;;20.06;100.00;101034.16;4987360;28;20492;-74
2023/09/14 05:43:03;;;;;;;23.08;21.48;;;;;;;20.21;100.00;101036.13;4982652;28;20057;-82
2023/09/14 05:45:29;;;;;;;21.30;20.02;;;;;;;20.53;100.00;101027.91;4983734;28;20076;-83
2023/09/14 05:47:58;;;;;;;23.15;21.33;;;;;;;20.55;100.00;101041.16;4992172;28;20050;-74
2023/09/14 05:50:33;;;;;;;24.20;22.38;;;;;;;20.80;100.00;101029.63;4981287;28;20603;-74
2023/09/14 05:53:00;;;;;;;22.27;20.77;;;;;;;20.72;100.00;101025.53;4976016;28;20050;-74
2023/09/14 05:55:27;;;;;;;19.90;18.70;;;;;;;20.94;100.00;101024.53;4974953;28;20133;-74
2023/09/14 05:57:56;;;;;;;21.42;20.23;;;;;;;21.05;100.00;101026.13;4979240;28;20058;-74
2023/09/14 06:00:23;;;;;;;23.25;21.63;;;;;;;21.15;100.00;101025.34;4988387;28;21161;-74
2023/09/14 06:02:50;;;;;;;23.95;22.17;;;;;;;21.27;100.00;101024.00;4972919;28;20043;-74
2023/09/14 06:05:25;;;;;;;24.10;22.83;;;;;;;21.49;100.00;101023.75;4981015;28;20050;-82
2023/09/14 06:07:53;;;;;;;29.95;28.35;;;;;;;21.73;100.00;101026.72;4998930;28;20054;-82
2023/09/14 06:10:20;;;;;;;27.55;25.88;;;;;;;22.09;100.00;101021.22;4988242;28;20051;-83
2023/09/14 06:12:47;;;;;;;24.95;23.55;;;;;;;22.07;100.00;101026.09;4977895;28;20441;-83
2023/09/14 06:15:24;;;;;;;27.45;25.65;;;;;;;22.21;100.00;101028.22;4973860;28;20115;-74
2023/09/14 06:17:51;;;;;;;27.00;25.30;;;;;;;22.18;100.00;101029.63;4991479;28;20483;-75
2023/09/14 06:20:18;;;;;;;27.15;25.65;;;;;;;22.38;100.00;101032.22;4978541;28;20050;-82
2023/09/14 06:22:46;;;;;;;26.88;25.38;;;;;;;22.53;100.00;101035.94;4977014;28;20076;-74
2023/09/14 06:25:15;;;;;;;27.63;26.13;;;;;;;22.74;100.00;101026.63;4977250;28;20087;-74
2023/09/14 06:27:44;;;;;;;25.35;24.05;;;;;;;23.01;100.00;101031.63;4979401;28;20144;-74
2023/09/14 06:30:12;;;;;;;24.92;23.52;;;;;;;23.02;100.00;101022.41;4981529;28;20131;-74
2023/09/14 06:32:39;;;;;;;25.90;24.60;;;;;;;23.12;100.00;101024.25;4985215;28;20049;-83
2023/09/14 06:35:07;;;;;;;44.13;42.13;;;;;;;23.54;100.00;101034.47;4983129;28;20421;-83
2023/09/14 06:37:37;;;;;;;41.05;39.00;;;;;;;23.46;100.00;101024.25;4976625;28;20109;-83
2023/09/14 06:40:07;;;;;;;40.88;38.67;;;;;;;23.49;100.00;101031.00;4980625;28;20051;-83
2023/09/14 06:42:36;;;;;;;46.95;44.75;;;;;;;23.75;100.00;101037.00;4986991;28;20084;-82
2023/09/14 06:45:09;;;;;;;45.95;43.78;;;;;;;24.10;100.00;101041.25;4985772;28;20051;-74
2023/09/14 06:47:36;;;;;;;54.45;51.78;;;;;;;24.10;100.00;101049.38;4987051;28;20045;-74
2023/09/14 06:50:03;;;;;;;48.42;46.17;;;;;;;23.74;100.00;101043.53;4983510;28;20050;-82
2023/09/14 06:52:31;;;;;;;45.47;43.28;;;;;;;23.80;100.00;101042.38;4989659;28;20635;-82
2023/09/14 06:54:57;;;;;;;46.35;43.92;;;;;;;23.98;100.00;101040.84;4984405;28;20054;-82
2023/09/14 06:57:28;;;;;;;43.25;41.05;;;;;;;24.35;100.00;101045.56;4991487;28;20905;-82
2023/09/14 06:59:55;;;;;;;40.70;38.17;;;;;;;24.51;100.00;101043.50;4981254;28;20472;-83
2023/09/14 07:02:21;;;;;;;35.42;33.58;;;;;;;24.62;100.00;101039.53;4985712;28;20054;-82
2023/09/14 07:04:48;;;;;;;54.03;37.50;;;;;;;24.90;100.00;101039.69;4989883;28;20050;-83
2023/09/14 07:07:16;;;;;;;40.15;38.10;;;;;;;25.09;100.00;101039.69;4979794;28;20046;-83
2023/09/14 07:09:53;;;;;;;39.08;37.17;;;;;;;25.23;100.00;101043.28;4976572;28;20053;-82
2023/09/14 07:12:20;;;;;;;38.42;36.42;;;;;;;25.36;100.00;101039.03;4991768;28;20500;-83
2023/09/14 07:14:49;;;;;;;38.25;35.22;;;;;;;25.68;100.00;101038.19;4984082;28;20046;-83
2023/09/14 07:17:16;;;;;;;26.13;24.35;;;;;;;25.92;100.00;101048.91;4988133;28;20487;-83
2023/09/14 07:19:49;;;;;;;20.23;19.02;;;;;;;26.34;100.00;101048.94;4994241;28;20047;-83
2023/09/14 07:22:16;;;;;;;23.25;21.88;;;;;;;25.65;100.00;101036.06;4990887;28;20436;-82
2023/09/14 07:24:43;;;;;;;37.53;35.63;;;;;;;26.60;100.00;101046.53;4980880;28;20546;-83
2023/09/14 07:27:21;;;;;;;43.08;40.97;;;;;;;27.01;100.00;101051.81;4981633;28;20051;-83
2023/09/14 07:29:52;;;;;;;39.67;37.63;;;;;;;27.21;100.00;101042.41;4977943;28;20051;-82
2023/09/14 07:32:34;;;;;;;34.47;32.78;;;;;;;27.03;100.00;101051.53;4985919;28;20483;-83
2023/09/14 07:35:13;;;;;;;37.20;35.40;;;;;;;27.00;100.00;101047.50;4983855;28;20078;-83
2023/09/14 07:37:47;;;;;;;35.38;33.58;;;;;;;27.03;100.00;101051.53;4991375;28;20047;-83
2023/09/14 07:40:18;;;;;;;42.70;40.28;;;;;;;27.25;100.00;101046.09;4981704;28;20059;-83
2023/09/14 07:42:57;;;;;;;37.30;35.30;;;;;;;27.50;100.00;101046.59;4981243;28;20055;-83
2023/09/14 07:45:25;;;;;;;31.48;29.67;;;;;;;27.16;100.00;101043.31;4977536;28;20559;-83
2023/09/14 07:47:54;;;;;;;36.45;34.45;;;;;;;26.98;100.00;101054.38;4979305;28;20423;-83
2023/09/14 07:50:20;;;;;;;33.65;31.85;;;;;;;26.99;100.00;101050.53;4989520;28;20056;-83
2023/09/14 07:52:47;;;;;;;34.58;32.67;;;;;;;27.17;100.00;101047.69;4989265;28;20435;-84
2023/09/14 07:55:14;;;;;;;33.13;31.25;;;;;;;27.20;100.00;101043.50;4984145;28;20046;-83
2023/09/14 07:57:41;;;;;;;25.60;24.05;;;;;;;28.01;100.00;101037.88;4981437;28;20051;-84
2023/09/14 08:00:09;;;;;;;26.55;24.90;;;;;;;27.62;100.00;101041.34;4975640;28;20493;-84
2023/09/14 08:02:38;;;;;;;36.63;34.63;;;;;;;27.62;100.00;101050.34;4981889;28;20051;-83
2023/09/14 08:05:15;;;;;;;35.83;33.92;;;;;;;28.13;100.00;101040.00;4986810;28;20054;-84
2023/09/14 08:07:46;;;;;;;39.88;37.88;;;;;;;28.02;100.00;101035.94;4988650;28;20061;-84
2023/09/14 08:10:20;;;;;;;37.78;35.67;;;;;;;28.78;100.00;101041.13;4985436;28;20110;-83
2023/09/14 08:12:47;;;;;;;39.80;37.30;;;;;;;29.21;100.00;101043.84;4998059;28;20053;-84
2023/09/14 08:15:16;;;;;;;34.08;31.98;;;;;;;30.11;100.00;101036.66;4983705;28;20061;-84
2023/09/14 08:17:44;;;;;;;37.25;34.22;;;;;;;30.45;100.00;101041.16;4981432;28;20042;-83
2023/09/14 08:20:21;;;;;;;34.67;32.53;;;;;;;29.74;100.00;101036.34;4988745;28;20136;-73
2023/09/14 08:22:49;;;;;;;36.42;34.13;;;;;;;28.15;100.00;101037.75;4975394;28;20448;-75
2023/09/14 08:25:16;;;;;;;34.53;32.53;;;;;;;28.59;100.00;101035.94;4987614;28;20054;-74
2023/09/14 08:27:43;;;;;;;35.78;33.67;;;;;;;27.57;100.00;101031.41;4971323;28;20050;-75
2023/09/14 08:30:12;;;;;;;34.58;32.47;;;;;;;28.76;100.00;101033.22;4986215;28;20050;-83
2023/09/14 08:32:40;;;;;;;26.63;24.92;;;;;;;30.02;100.00;101017.53;4993191;28;20060;-74
2023/09/14 08:35:28;;;;;;;29.00;27.10;;;;;;;30.95;100.00;101023.06;4981012;28;20082;-74
2023/09/14 08:37:56;;;;;;;24.65;22.85;;;;;;;31.17;100.00;101016.41;4986573;28;20046;-74
2023/09/14 08:40:29;;;;;;;31.77;29.67;;;;;;;30.00;100.00;101016.25;4989058;28;20045;-75
2023/09/14 08:43:11;;;;;;;36.35;33.75;;;;;;;30.01;100.00;101010.44;4987840;28;20055;-75
2023/09/14 08:45:42;;;;;;;35.30;33.20;;;;;;;30.24;100.00;101015.69;4976817;28;20054;-74
2023/09/14 08:48:31;;;;;;;38.40;36.20;;;;;;;29.85;100.00;101003.94;4989897;28;20043;-75
2023/09/14 08:51:01;;;;;;;46.65;44.15;;;;;;;30.15;100.00;101001.19;4989263;28;20058;-75
2023/09/14 08:53:28;;;;;;;41.33;39.13;;;;;;;30.94;95.30;101008.53;4984559;28;20055;-74
2023/09/14 08:55:55;;;;;;;22.50;21.00;;;;;;;30.51;100.00;101003.41;4976366;28;20530;-83
2023/09/14 08:58:23;;;;;;;21.70;20.20;;;;;;;31.66;92.27;100997.31;4989477;28;20447;-84
2023/09/14 09:01:03;;;;;;;39.08;36.97;;;;;;;31.60;92.86;100995.94;4982999;28;20049;-84
2023/09/14 09:03:30;;;;;;;38.75;36.65;;;;;;;30.44;96.25;100992.16;4978112;28;20508;-74
2023/09/14 09:05:59;;;;;;;36.70;32.80;;;;;;;30.92;93.82;100988.88;4988663;28;20054;-74
2023/09/14 09:08:27;;;;;;;36.22;34.20;;;;;;;32.20;92.67;100977.88;4988020;28;20054;-75
2023/09/14 09:10:54;;;;;;;37.97;35.85;;;;;;;32.32;79.02;100974.28;4980048;28;20962;-75
2023/09/14 09:13:33;;;;;;;35.03;33.10;;;;;;;31.08;84.02;100986.31;4990420;28;20054;-74
2023/09/14 09:16:00;;;;;;;46.40;41.67;;;;;;;31.96;85.38;100977.91;4983073;28;20051;-75
2023/09/14 09:18:28;;;;;;;39.78;37.58;;;;;;;31.62;76.72;100977.16;4985280;28;20097;-75
2023/09/14 09:20:57;;;;;;;22.63;20.92;;;;;;;30.77;77.86;100979.34;4977920;28;20520;-74
2023/09/14 09:23:26;;;;;;;36.42;34.53;;;;;;;31.84;75.12;100970.44;4979341;28;20073;-75
2023/09/14 09:25:54;;;;;;;40.17;37.95;;;;;;;31.21;77.48;100979.72;4988566;28;20058;-74
2023/09/14 09:28:29;;;;;;;42.03;39.67;;;;;;;30.28;87.51;100984.53;4984353;28;20746;-75
2023/09/14 09:30:56;;;;;;;44.40;42.10;;;;;;;29.66;96.84;100976.97;4992469;28;20531;-75
2023/09/14 09:33:34;;;;;;;41.95;39.75;;;;;;;29.58;93.69;100978.56;4987873;28;20462;-85
2023/09/14 09:36:01;;;;;;;26.33;24.52;;;;;;;28.87;100.00;100983.72;4973572;28;20046;-84
2023/09/14 09:38:37;;;;;;;25.80;24.30;;;;;;;29.34;100.00;100979.13;4978051;28;20565;-85
2023/09/14 09:41:10;;;;;;;26.00;24.38;;;;;;;29.53;99.64;100972.47;4988113;28;20436;-83
2023/09/14 09:43:37;;;;;;;27.05;25.25;;;;;;;29.99;96.04;100968.13;4982586;28;20047;-83
2023/09/14 09:46:14;;;;;;;28.88;27.08;;;;;;;29.26;100.00;100974.53;4990317;28;20050;-84
2023/09/14 09:48:41;;;;;;;26.00;24.42;;;;;;;30.24;91.01;100966.38;4988287;28;20046;-75
2023/09/14 09:51:08;;;;;;;24.48;22.88;;;;;;;30.79;88.12;100968.03;4980849;28;20054;-74
2023/09/14 09:53:36;;;;;;;25.23;23.63;;;;;;;31.38;77.91;100966.97;4978053;28;20051;-74
2023/09/14 09:56:03;;;;;;;26.33;24.70;;;;;;;31.44;71.61;100960.94;4986395;28;20062;-74
2023/09/14 09:58:37;;;;;;;29.08;27.08;;;;;;;29.61;98.13;100964.25;4991176;28;20046;-74
2023/09/14 10:01:04;;;;;;;29.35;27.33;;;;;;;30.80;82.26;100970.47;4991673;28;20046;-84
2023/09/14 10:03:38;;;;;;;26.65;25.05;;;;;;;29.87;88.66;100963.34;4983573;28;20146;-85
2023/09/14 10:06:09;;;;;;;24.65;22.80;;;;;;;29.89;98.10;100967.34;4988864;28;20046;-75
2023/09/14 10:08:37;;;;;;;24.10;22.50;;;;;;;31.87;83.89;100956.03;4991412;28;20129;-83
2023/09/14 10:11:07;;;;;;;23.17;21.58;;;;;;;32.65;71.79;100954.88;4979234;28;20050;-84
2023/09/14 10:13:34;;;;;;;23.20;21.50;;;;;;;33.13;66.29;100957.72;4977933;28;20054;-83
2023/09/14 10:16:03;;;;;;;23.48;21.77;;;;;;;30.29;89.33;100958.78;4984381;28;20050;-83
2023/09/14 10:18:32;;;;;;;22.38;20.77;;;;;;;29.91;96.17;100947.88;4986911;28;20051;-83
2023/09/14 10:21:07;;;;;;;21.38;19.70;;;;;;;30.07;88.02;100953.56;4988949;28;20050;-83
2023/09/14 10:23:37;;;;;;;23.08;21.35;;;;;;;30.33;88.88;100950.69;4988812;28;20051;-74
2023/09/14 10:26:04;;;;;;;22.70;21.20;;;;;;;30.69;81.76;100957.47;4981052;28;20540;-81
2023/09/14 10:28:32;;;;;;;24.42;22.73;;;;;;;31.68;69.49;100935.44;4986786;28;20057;-83
2023/09/14 10:30:59;;;;;;;23.45;21.42;;;;;;;31.18;69.27;100942.00;4980988;28;20082;-83
2023/09/14 10:33:28;;;;;;;22.80;21.10;;;;;;;30.57;75.58;100939.84;4982564;28;20484;-83
2023/09/14 10:35:57;;;;;;;24.83;23.25;;;;;;;30.26;84.90;100936.69;4993082;28;20050;-83
2023/09/14 10:38:24;;;;;;;25.75;24.02;;;;;;;30.48;73.88;100935.56;4987497;28;20043;-82
2023/09/14 10:40:53;;;;;;;23.40;22.00;;;;;;;30.18;81.24;100932.06;4981311;28;20053;-83
2023/09/14 10:43:38;;;;;;;25.77;24.27;;;;;;;30.69;78.91;100930.88;4985515;28;20141;-83
2023/09/14 10:46:08;;;;;;;26.10;24.40;;;;;;;30.91;75.91;100924.22;4987616;28;20051;-83
2023/09/14 10:48:36;;;;;;;23.52;21.92;;;;;;;32.13;56.87;100918.00;4976549;28;20050;-83
2023/09/14 10:51:04;;;;;;;24.80;22.90;;;;;;;32.53;59.17;100914.47;4974362;28;20090;-83
2023/09/14 10:53:34;;;;;;;25.55;23.95;;;;;;;32.69;44.67;100913.72;4986463;28;20056;-83
2023/09/14 10:56:06;;;;;;;24.15;22.65;;;;;;;34.53;40.34;100910.22;4977119;28;20420;-82
2023/09/14 10:58:43;;;;;;;27.38;25.33;;;;;;;33.68;44.40;100903.69;4974512;28;20053;-83
2023/09/14 11:01:12;;;;;;;26.10;23.67;;;;;;;33.01;44.59;100912.66;4984883;28;20093;-83
2023/09/14 11:04:06;;;;;;;34.55;32.55;;;;;;;35.63;38.24;100907.81;4992135;28;20060;-83
2023/09/14 11:06:44;;;;;;;28.33;26.63;;;;;;;33.73;47.01;100901.41;4979833;28;20058;-83
2023/09/14 11:09:13;;;;;;;29.50;27.80;;;;;;;33.27;50.59;100900.31;4989449;28;20046;-83
2023/09/14 11:11:43;;;;;;;27.20;25.60;;;;;;;33.98;47.36;100898.41;4974148;28;20054;-83
2023/09/14 11:14:13;;;;;;;36.38;34.38;;;;;;;34.07;44.02;100907.31;4972585;28;20057;-83